Time;durP1;ratioP1;P1;durP2;ratioP2;P2;SDS_P1;SDS_P2;PMS_P1;PMS_P2;Temp;Humidity;BMP_temperature;BMP_pressure;BME280_temperature;BME280_humidity;BME280_pressure;Samples;Min_cycle;Max_cycle;Signal;HPM_P1;HPM_P2
2021/11/18 00:00:51;;;;;;;37.38;4.68;;;;;;;7.95;87.77;102746.78;5054940;28;20119;-76
2021/11/18 00:03:18;;;;;;;33.28;4.47;;;;;;;7.98;87.48;102741.34;5054632;28;20104;-78
2021/11/18 00:05:45;;;;;;;28.55;4.78;;;;;;;8.00;87.40;102752.75;5054385;28;20060;-76
2021/11/18 00:08:10;;;;;;;32.03;4.75;;;;;;;8.02;86.95;102750.84;5054660;28;20029;-77
2021/11/18 00:10:39;;;;;;;26.58;4.10;;;;;;;8.00;87.31;102746.56;5054309;28;20029;-76
2021/11/18 00:13:09;;;;;;;27.67;5.22;;;;;;;7.92;87.07;102741.63;5054665;28;20029;-76
2021/11/18 00:15:36;;;;;;;22.60;4.30;;;;;;;7.79;87.58;102749.31;5069885;28;20028;-76
2021/11/18 00:18:08;;;;;;;25.60;5.07;;;;;;;7.71;88.50;102752.34;5054596;28;20040;-77
2021/11/18 00:20:37;;;;;;;38.13;4.60;;;;;;;7.67;88.98;102748.13;5053891;28;20124;-77
2021/11/18 00:23:04;;;;;;;23.83;4.25;;;;;;;7.64;88.87;102756.22;5054364;28;20052;-74
2021/11/18 00:25:29;;;;;;;21.88;4.47;;;;;;;7.63;89.27;102749.22;5054115;28;20041;-75
2021/11/18 00:27:55;;;;;;;25.02;4.10;;;;;;;7.66;89.36;102753.47;5036757;28;20374;-75
2021/11/18 00:30:22;;;;;;;26.42;4.22;;;;;;;7.67;89.02;102755.22;5053895;28;20021;-76
2021/11/18 00:32:48;;;;;;;30.08;5.45;;;;;;;7.62;89.35;102750.13;5054357;28;20033;-75
2021/11/18 00:35:17;;;;;;;27.42;5.13;;;;;;;7.59;89.19;102756.44;5054229;28;20032;-75
2021/11/18 00:37:44;;;;;;;34.13;5.20;;;;;;;7.64;89.53;102760.66;5035850;28;20061;-75
2021/11/18 00:40:10;;;;;;;33.22;4.85;;;;;;;7.61;89.14;102753.72;5054214;28;20477;-74
2021/11/18 00:42:35;;;;;;;31.90;4.93;;;;;;;7.56;89.57;102750.44;5053766;28;20061;-77
2021/11/18 00:45:01;;;;;;;24.70;4.65;;;;;;;7.49;89.68;102759.59;5036194;28;20542;-75
2021/11/18 00:47:27;;;;;;;24.58;4.70;;;;;;;7.41;90.08;102755.50;5035637;28;20031;-74
2021/11/18 00:49:52;;;;;;;27.30;4.85;;;;;;;7.39;90.44;102757.38;5054019;28;20069;-75
2021/11/18 00:52:19;;;;;;;21.85;4.00;;;;;;;7.43;90.21;102750.13;5036067;28;20033;-74
2021/11/18 00:54:45;;;;;;;29.73;5.55;;;;;;;7.38;89.72;102745.06;5035655;28;20481;-77
2021/11/18 00:57:11;;;;;;;31.45;4.80;;;;;;;7.30;90.08;102755.16;5036289;28;20036;-77
2021/11/18 00:59:36;;;;;;;22.30;4.32;;;;;;;7.30;90.55;102749.00;5068816;28;20028;-77
2021/11/18 01:02:01;;;;;;;37.60;5.10;;;;;;;7.28;90.50;102750.88;5053638;28;20036;-77
2021/11/18 01:04:29;;;;;;;28.63;4.43;;;;;;;7.29;90.58;102756.09;5053266;28;20473;-76
2021/11/18 01:06:56;;;;;;;31.10;4.35;;;;;;;7.33;90.73;102754.13;5054054;28;20691;-75
2021/11/18 01:09:21;;;;;;;33.00;6.55;;;;;;;7.35;90.69;102769.03;5053730;28;20037;-75
2021/11/18 01:11:47;;;;;;;31.35;5.30;;;;;;;7.32;90.39;102769.19;5053210;28;20032;-75
2021/11/18 01:14:14;;;;;;;28.85;3.80;;;;;;;7.27;90.74;102771.19;5035523;28;20120;-75
2021/11/18 01:16:42;;;;;;;28.98;4.50;;;;;;;7.16;90.37;102763.72;5052847;28;20071;-74
2021/11/18 01:19:09;;;;;;;28.45;4.75;;;;;;;7.08;91.24;102768.53;5052718;28;20025;-75
2021/11/18 01:21:36;;;;;;;36.58;5.07;;;;;;;7.09;91.56;102772.00;5053147;28;20047;-77
2021/11/18 01:24:03;;;;;;;37.92;5.38;;;;;;;7.09;91.50;102759.66;5053566;28;20049;-76
2021/11/18 01:26:29;;;;;;;30.33;4.55;;;;;;;7.10;92.26;102747.28;5052697;28;20037;-77
2021/11/18 01:28:55;;;;;;;24.58;4.00;;;;;;;7.03;91.94;102751.97;5035568;28;20040;-76
2021/11/18 01:31:21;;;;;;;27.98;4.40;;;;;;;6.92;91.91;102760.41;5053161;28;20035;-74
2021/11/18 01:33:47;;;;;;;35.67;5.53;;;;;;;6.79;92.20;102767.16;5034835;28;20043;-75
2021/11/18 01:36:13;;;;;;;35.60;4.60;;;;;;;6.68;92.75;102775.56;5053300;28;20029;-75
2021/11/18 01:38:38;;;;;;;30.00;4.90;;;;;;;6.63;93.55;102775.78;5034549;28;20106;-74
2021/11/18 01:41:11;;;;;;;33.33;5.65;;;;;;;6.68;94.38;102771.13;5053242;28;20037;-75
2021/11/18 01:43:41;;;;;;;33.20;5.32;;;;;;;6.76;94.44;102772.59;5064459;22;20024;-75
2021/11/18 01:46:10;;;;;;;35.97;4.38;;;;;;;6.82;94.34;102774.97;5031823;28;20034;-75
2021/11/18 01:48:35;;;;;;;31.75;5.50;;;;;;;6.90;94.44;102780.78;5032975;28;20079;-77
2021/11/18 01:51:03;;;;;;;30.92;4.72;;;;;;;7.05;94.71;102781.91;5015127;28;20501;-75
2021/11/18 01:53:36;;;;;;;26.95;4.30;;;;;;;7.14;93.73;102788.56;5031654;28;20496;-74
2021/11/18 01:56:05;;;;;;;36.92;5.15;;;;;;;7.16;93.31;102790.19;5033025;28;20084;-74
2021/11/18 01:58:30;;;;;;;24.73;4.53;;;;;;;7.20;93.36;102791.78;5032359;28;20060;-76
2021/11/18 02:00:58;;;;;;;27.83;4.10;;;;;;;7.22;93.57;102794.34;5031424;28;20485;-75
2021/11/18 02:03:25;;;;;;;27.88;4.57;;;;;;;7.21;92.85;102795.28;5031892;28;20167;-74
2021/11/18 02:06:13;;;;;;;34.25;4.85;;;;;;;7.17;92.79;102806.97;5031180;28;20116;-74
2021/11/18 02:08:39;;;;;;;32.60;4.10;;;;;;;7.21;93.38;102797.94;5032413;28;20167;-75
2021/11/18 02:11:14;;;;;;;45.08;5.72;;;;;;;7.26;93.37;102793.31;5031208;28;20029;-74
2021/11/18 02:13:39;;;;;;;37.78;4.40;;;;;;;7.40;93.63;102797.97;5031137;28;20489;-76
2021/11/18 02:16:12;;;;;;;23.35;3.92;;;;;;;7.55;92.37;102791.09;5032737;28;20030;-74
2021/11/18 02:18:38;;;;;;;22.80;4.55;;;;;;;7.65;91.75;102792.38;5032447;28;20025;-75
2021/11/18 02:21:09;;;;;;;24.92;4.20;;;;;;;7.80;91.31;102789.94;5032477;28;20121;-75
2021/11/18 02:23:40;;;;;;;32.85;4.53;;;;;;;7.86;90.59;102797.59;5032065;28;20034;-76
2021/11/18 02:26:06;;;;;;;23.10;4.33;;;;;;;7.86;90.09;102798.44;5030979;28;20037;-75
2021/11/18 02:28:35;;;;;;;29.10;4.70;;;;;;;7.87;89.84;102800.19;5031287;28;20056;-75
2021/11/18 02:31:04;;;;;;;28.80;5.18;;;;;;;7.86;90.04;102797.59;5032416;28;20025;-76
2021/11/18 02:33:30;;;;;;;31.83;4.80;;;;;;;7.96;90.27;102798.88;5032490;28;20026;-76
2021/11/18 02:35:57;;;;;;;28.45;4.30;;;;;;;8.02;89.65;102803.03;5030631;28;20029;-76
2021/11/18 02:38:23;;;;;;;22.20;4.07;;;;;;;8.06;88.76;102802.81;5032305;28;20488;-76
2021/11/18 02:40:49;;;;;;;31.98;4.60;;;;;;;8.14;88.95;102798.94;5032306;28;20037;-76
2021/11/18 02:43:17;;;;;;;38.28;4.75;;;;;;;8.18;88.96;102809.31;5032545;28;20065;-76
2021/11/18 02:45:46;;;;;;;31.52;4.25;;;;;;;8.26;88.19;102804.47;5032234;28;20057;-76
2021/11/18 02:48:12;;;;;;;25.65;4.07;;;;;;;8.37;87.93;102803.06;5031196;28;20057;-74
2021/11/18 02:50:47;;;;;;;28.92;4.65;;;;;;;8.47;86.79;102793.75;5030385;28;20445;-75
2021/11/18 02:53:14;;;;;;;29.70;4.45;;;;;;;8.53;86.98;102795.25;5032617;28;20045;-76
2021/11/18 02:55:44;;;;;;;40.13;5.03;;;;;;;8.49;86.62;102786.56;5014630;28;20446;-75
2021/11/18 02:58:10;;;;;;;30.85;4.18;;;;;;;8.51;86.25;102789.13;5032223;28;20030;-74
2021/11/18 03:00:40;;;;;;;25.58;4.93;;;;;;;8.52;86.40;102794.38;5030912;28;20041;-75
2021/11/18 03:03:06;;;;;;;22.08;4.22;;;;;;;8.52;86.34;102791.72;5032466;28;20053;-75
2021/11/18 03:05:32;;;;;;;24.95;3.67;;;;;;;8.48;86.44;102790.19;5014372;28;20072;-75
2021/11/18 03:07:58;;;;;;;24.50;4.60;;;;;;;8.49;85.99;102791.03;5030557;28;20040;-74
2021/11/18 03:10:26;;;;;;;28.60;4.28;;;;;;;8.50;85.72;102790.94;5014459;28;20044;-75
2021/11/18 03:12:52;;;;;;;30.33;4.43;;;;;;;8.56;85.45;102787.97;5031733;28;20029;-75
2021/11/18 03:15:19;;;;;;;21.13;3.45;;;;;;;8.57;86.03;102791.47;5032155;28;20480;-75
2021/11/18 03:17:44;;;;;;;36.97;4.68;;;;;;;8.54;85.96;102783.69;5030329;28;20048;-75
2021/11/18 03:20:14;;;;;;;22.60;4.22;;;;;;;8.52;85.54;102790.88;5031887;28;20038;-76
2021/11/18 03:22:41;;;;;;;32.45;3.65;;;;;;;8.49;85.59;102791.88;5030435;28;20029;-77
2021/11/18 03:25:08;;;;;;;21.77;3.60;;;;;;;8.44;85.78;102785.94;5014352;28;20516;-76
2021/11/18 03:27:33;;;;;;;31.33;4.10;;;;;;;8.42;85.54;102790.44;5030861;28;20079;-74
2021/11/18 03:29:59;;;;;;;25.67;3.85;;;;;;;8.41;85.13;102788.72;5031296;28;20030;-74
2021/11/18 03:32:24;;;;;;;28.70;3.95;;;;;;;8.39;84.93;102790.59;5030445;28;20034;-74
2021/11/18 03:34:50;;;;;;;24.67;3.65;;;;;;;8.42;84.27;102790.44;5013591;28;20033;-75
2021/11/18 03:37:15;;;;;;;29.23;4.22;;;;;;;8.44;84.15;102788.59;5032017;28;20033;-74
2021/11/18 03:39:41;;;;;;;22.95;3.28;;;;;;;8.48;82.95;102798.13;5032028;28;20060;-74
2021/11/18 03:42:10;;;;;;;21.27;3.33;;;;;;;8.48;83.01;102798.13;5016961;28;20078;-74
2021/11/18 03:44:36;;;;;;;22.95;3.25;;;;;;;8.41;83.08;102791.38;5035581;28;20049;-76
2021/11/18 03:47:08;;;;;;;20.98;2.97;;;;;;;8.37;83.00;102785.34;5034899;28;20095;-76
2021/11/18 03:49:34;;;;;;;17.25;2.95;;;;;;;8.30;83.10;102789.28;5033998;28;20022;-76
2021/11/18 03:52:01;;;;;;;25.58;3.10;;;;;;;8.28;83.04;102792.00;5034901;28;20108;-77
2021/11/18 03:54:29;;;;;;;29.73;3.83;;;;;;;8.29;82.44;102791.06;5035089;28;20547;-76
2021/11/18 03:56:55;;;;;;;20.38;3.28;;;;;;;8.22;82.46;102789.63;5034645;28;20034;-76
2021/11/18 03:59:25;;;;;;;25.70;3.38;;;;;;;8.08;83.01;102786.81;5035423;28;20386;-76
2021/11/18 04:01:51;;;;;;;19.27;3.30;;;;;;;7.91;83.53;102792.91;5034307;28;20115;-75
2021/11/18 04:04:21;;;;;;;24.20;3.70;;;;;;;7.71;84.48;102785.94;5035109;28;20034;-74
2021/11/18 04:06:48;;;;;;;18.02;3.72;;;;;;;7.66;84.97;102790.56;5033403;28;20025;-74
2021/11/18 04:09:14;;;;;;;25.40;3.65;;;;;;;7.68;85.10;102789.59;5035014;28;20033;-74
2021/11/18 04:11:44;;;;;;;21.70;3.28;;;;;;;7.71;84.86;102797.38;5034864;28;20079;-75
2021/11/18 04:14:11;;;;;;;18.13;3.88;;;;;;;7.70;84.89;102797.47;5033265;28;20033;-75
2021/11/18 04:16:37;;;;;;;23.67;3.58;;;;;;;7.66;85.11;102794.09;5034670;28;20116;-74
2021/11/18 04:19:03;;;;;;;26.83;4.15;;;;;;;7.59;85.34;102800.63;5034411;28;20029;-75
2021/11/18 04:21:31;;;;;;;30.35;4.25;;;;;;;7.51;85.80;102798.34;5034713;28;20099;-75
2021/11/18 04:23:58;;;;;;;23.95;3.20;;;;;;;7.49;86.42;102789.56;5032886;28;20026;-75
2021/11/18 04:26:23;;;;;;;24.58;3.60;;;;;;;7.51;86.14;102790.38;5034552;28;20033;-75
2021/11/18 04:28:49;;;;;;;22.17;3.60;;;;;;;7.49;86.38;102786.09;5032699;28;20393;-75
2021/11/18 04:31:17;;;;;;;29.10;4.90;;;;;;;7.50;86.34;102780.72;5034847;28;20034;-75
2021/11/18 04:33:42;;;;;;;23.83;3.85;;;;;;;7.48;86.26;102772.00;5034619;28;20108;-75
2021/11/18 04:36:10;;;;;;;25.50;4.47;;;;;;;7.47;86.75;102761.47;5033867;28;20065;-75
2021/11/18 04:38:36;;;;;;;23.90;4.28;;;;;;;7.48;86.59;102763.16;5033288;28;20455;-75
2021/11/18 04:41:04;;;;;;;20.85;4.60;;;;;;;7.44;86.73;102762.47;5033811;28;20036;-76
2021/11/18 04:43:29;;;;;;;22.25;3.80;;;;;;;7.44;87.02;102762.47;5033923;28;20034;-74
2021/11/18 04:45:56;;;;;;;27.50;3.63;;;;;;;7.47;87.08;102772.06;5034197;28;20042;-75
2021/11/18 04:48:22;;;;;;;25.95;3.85;;;;;;;7.49;86.88;102764.91;5032926;28;20048;-75
2021/11/18 04:50:48;;;;;;;21.67;3.20;;;;;;;7.47;86.87;102756.16;5034004;28;20127;-74
2021/11/18 04:53:14;;;;;;;27.05;4.38;;;;;;;7.39;87.62;102757.38;5014799;28;20111;-75
2021/11/18 04:55:40;;;;;;;27.45;3.70;;;;;;;7.32;87.71;102752.44;5034140;28;20036;-75
2021/11/18 04:58:07;;;;;;;16.77;3.85;;;;;;;7.27;88.20;102742.06;5032226;28;20393;-74
2021/11/18 05:00:46;;;;;;;34.38;4.78;;;;;;;7.30;88.60;102755.16;5034064;28;20056;-75
2021/11/18 05:03:12;;;;;;;24.45;3.42;;;;;;;7.40;88.69;102767.06;5033647;28;20029;-75
2021/11/18 05:05:38;;;;;;;20.88;3.22;;;;;;;7.48;88.16;102765.81;5032692;28;20061;-75
2021/11/18 05:08:03;;;;;;;24.40;4.50;;;;;;;7.55;88.06;102764.59;5031962;28;20088;-75
2021/11/18 05:10:29;;;;;;;25.95;4.25;;;;;;;7.60;87.69;102775.84;5033598;28;20041;-75
2021/11/18 05:12:55;;;;;;;30.73;4.10;;;;;;;7.64;87.59;102773.91;5015333;28;20037;-76
2021/11/18 05:15:25;;;;;;;21.50;3.90;;;;;;;7.61;87.48;102771.41;5033767;28;20463;-76
2021/11/18 05:17:50;;;;;;;25.83;4.03;;;;;;;7.52;87.89;102764.75;5032290;28;20424;-75
2021/11/18 05:20:18;;;;;;;26.17;4.18;;;;;;;7.38;88.16;102763.59;5033138;28;20075;-77
2021/11/18 05:22:44;;;;;;;26.95;4.55;;;;;;;7.26;88.96;102766.81;5033480;28;20029;-76
2021/11/18 05:25:11;;;;;;;19.73;3.47;;;;;;;7.16;89.13;102779.59;5031680;28;20462;-76
2021/11/18 05:27:36;;;;;;;22.58;3.88;;;;;;;7.12;89.99;102766.56;5033446;28;20021;-75
2021/11/18 05:30:04;;;;;;;23.70;4.22;;;;;;;7.09;90.19;102762.31;5033088;28;20390;-76
2021/11/18 05:32:32;;;;;;;20.73;3.58;;;;;;;7.04;90.71;102773.06;5033319;28;20029;-79
2021/11/18 05:34:59;;;;;;;23.83;4.50;;;;;;;6.93;91.50;102778.00;5032869;28;20492;-76
2021/11/18 05:37:25;;;;;;;36.33;4.47;;;;;;;6.80;92.19;102777.66;5033246;28;20033;-75
2021/11/18 05:39:50;;;;;;;27.73;5.35;;;;;;;6.78;92.85;102783.97;5031304;28;20083;-74
2021/11/18 05:42:16;;;;;;;25.55;3.85;;;;;;;6.85;93.22;102781.00;5015094;28;20037;-75
2021/11/18 05:44:41;;;;;;;26.30;4.57;;;;;;;6.92;93.34;102768.34;5033036;28;20053;-74
2021/11/18 05:47:07;;;;;;;33.38;4.90;;;;;;;6.98;93.28;102769.84;5031405;28;20114;-75
2021/11/18 05:49:33;;;;;;;30.15;4.53;;;;;;;7.09;93.17;102764.94;5015609;28;20442;-75
2021/11/18 05:51:58;;;;;;;32.17;4.65;;;;;;;7.12;92.83;102766.56;5032506;28;20163;-76
2021/11/18 05:54:24;;;;;;;21.23;3.60;;;;;;;7.14;92.73;102764.75;5031469;28;20037;-75
2021/11/18 05:56:49;;;;;;;24.83;4.00;;;;;;;7.11;92.88;102773.66;5032875;28;20030;-76
2021/11/18 05:59:14;;;;;;;28.30;4.43;;;;;;;7.06;92.61;102773.88;5031182;28;20041;-76
2021/11/18 06:01:40;;;;;;;33.72;4.22;;;;;;;7.02;93.05;102777.59;5032768;28;20078;-76
2021/11/18 06:04:06;;;;;;;36.35;5.10;;;;;;;6.92;93.02;102781.56;5031855;28;20108;-75
2021/11/18 06:06:32;;;;;;;23.73;3.80;;;;;;;6.79;93.22;102781.25;5032780;28;20032;-77
2021/11/18 06:09:03;;;;;;;29.30;4.60;;;;;;;6.67;93.78;102787.06;5032507;28;20034;-75
2021/11/18 06:11:35;;;;;;;31.23;4.20;;;;;;;6.51;94.23;102776.31;5031835;28;20363;-75
2021/11/18 06:14:02;;;;;;;29.30;4.85;;;;;;;6.36;94.72;102780.44;5030961;28;20030;-75
2021/11/18 06:16:28;;;;;;;30.83;4.75;;;;;;;6.24;95.71;102780.94;5032565;28;20025;-76
2021/11/18 06:18:58;;;;;;;23.65;3.47;;;;;;;6.15;96.27;102782.16;5032555;28;20120;-77
2021/11/18 06:21:24;;;;;;;23.17;4.45;;;;;;;6.08;96.85;102784.22;5031934;28;20045;-74
2021/11/18 06:23:50;;;;;;;33.58;4.68;;;;;;;5.99;97.02;102774.88;5032411;28;20108;-76
2021/11/18 06:26:17;;;;;;;31.38;5.30;;;;;;;5.93;97.54;102782.16;5031723;28;20108;-76
2021/11/18 06:28:43;;;;;;;23.23;4.30;;;;;;;5.86;97.51;102784.19;5032437;28;20037;-74
2021/11/18 06:31:11;;;;;;;30.98;5.60;;;;;;;5.82;98.27;102783.44;5031832;28;20033;-76
2021/11/18 06:33:37;;;;;;;32.92;5.20;;;;;;;5.76;98.53;102781.06;5032754;28;20462;-77
2021/11/18 06:36:03;;;;;;;35.00;5.63;;;;;;;5.72;98.61;102782.09;5030513;28;20026;-77
2021/11/18 06:38:29;;;;;;;38.05;6.13;;;;;;;5.70;99.33;102789.19;5031282;28;20053;-76
2021/11/18 06:40:56;;;;;;;34.25;5.60;;;;;;;5.74;99.60;102790.81;5032276;28;20075;-78
2021/11/18 06:43:22;;;;;;;33.25;4.95;;;;;;;5.75;100.00;102783.75;5032012;28;20051;-77
2021/11/18 06:45:49;;;;;;;28.13;5.20;;;;;;;5.77;100.00;102789.84;5032302;28;20042;-76
2021/11/18 06:48:17;;;;;;;37.03;6.50;;;;;;;5.80;100.00;102790.56;5031588;28;20468;-76
2021/11/18 06:50:44;;;;;;;30.70;5.55;;;;;;;5.81;100.00;102783.53;5032075;28;20026;-76
2021/11/18 06:53:10;;;;;;;22.08;5.22;;;;;;;5.80;100.00;102792.34;5031981;28;20087;-76
2021/11/18 06:55:36;;;;;;;33.05;5.97;;;;;;;5.82;100.00;102795.78;5032276;28;20033;-76
2021/11/18 06:58:01;;;;;;;30.90;5.60;;;;;;;5.84;100.00;102804.53;5014544;28;20045;-75
2021/11/18 07:00:27;;;;;;;35.08;6.00;;;;;;;5.81;100.00;102810.78;5031528;28;20090;-72
2021/11/18 07:02:52;;;;;;;36.45;6.85;;;;;;;5.82;100.00;102824.84;5032040;28;20389;-76
2021/11/18 07:05:18;;;;;;;42.60;5.55;;;;;;;5.87;100.00;102832.59;5031598;28;20060;-74
2021/11/18 07:07:44;;;;;;;38.92;6.40;;;;;;;5.90;100.00;102836.00;5030609;28;20041;-75
2021/11/18 07:10:10;;;;;;;42.00;6.78;;;;;;;5.96;100.00;102833.09;5030395;28;20128;-76
2021/11/18 07:12:37;;;;;;;41.38;7.22;;;;;;;6.03;100.00;102832.88;5030705;28;20066;-74
2021/11/18 07:15:05;;;;;;;35.60;6.35;;;;;;;6.06;100.00;102823.06;5014145;28;20379;-73
2021/11/18 07:17:31;;;;;;;33.38;6.20;;;;;;;6.11;100.00;102828.19;5029077;28;20033;-75
2021/11/18 07:19:57;;;;;;;32.53;6.03;;;;;;;6.07;100.00;102837.13;5039798;28;20094;-75
2021/11/18 07:22:23;;;;;;;26.05;5.63;;;;;;;6.05;100.00;102847.78;5051546;28;20033;-73
2021/11/18 07:24:48;;;;;;;33.45;6.00;;;;;;;6.00;100.00;102849.72;5044176;28;20041;-74
2021/11/18 07:27:14;;;;;;;33.75;6.22;;;;;;;5.94;100.00;102850.81;5044247;28;20029;-75
2021/11/18 07:29:39;;;;;;;46.08;6.07;;;;;;;5.92;100.00;102846.50;5041786;28;20033;-75
2021/11/18 07:32:05;;;;;;;31.50;6.55;;;;;;;5.92;100.00;102846.50;5044834;28;20039;-75
2021/11/18 07:34:30;;;;;;;36.17;6.20;;;;;;;5.90;100.00;102845.72;5043501;28;20037;-74
2021/11/18 07:36:56;;;;;;;33.03;6.88;;;;;;;5.91;100.00;102855.34;5043435;28;20036;-74
2021/11/18 07:39:24;;;;;;;34.63;6.35;;;;;;;5.90;100.00;102854.47;5036605;28;20127;-75
2021/11/18 07:41:52;;;;;;;40.08;7.18;;;;;;;5.98;100.00;102852.41;5043036;28;20148;-76
2021/11/18 07:44:18;;;;;;;45.15;8.35;;;;;;;6.08;100.00;102841.50;5053930;28;20048;-76
2021/11/18 07:46:43;;;;;;;36.58;6.05;;;;;;;6.11;100.00;102841.38;5054225;28;20037;-74
2021/11/18 07:49:09;;;;;;;33.63;6.75;;;;;;;6.12;100.00;102841.31;5054094;28;20040;-73
2021/11/18 07:51:36;;;;;;;43.05;7.15;;;;;;;6.17;100.00;102835.84;5054387;28;20033;-74
2021/11/18 07:54:02;;;;;;;38.70;6.80;;;;;;;6.21;100.00;102842.75;5054290;28;20041;-73
2021/11/18 07:56:30;;;;;;;25.33;7.15;;;;;;;6.22;100.00;102846.25;5053673;28;20106;-73
2021/11/18 07:58:55;;;;;;;34.60;6.32;;;;;;;6.18;100.00;102846.38;5053943;28;20037;-73
2021/11/18 08:01:21;;;;;;;33.03;6.72;;;;;;;6.19;100.00;102852.50;5054048;28;20044;-73
2021/11/18 08:03:48;;;;;;;43.47;7.10;;;;;;;6.22;100.00;102848.88;5054107;28;20040;-76
2021/11/18 08:06:17;;;;;;;29.80;7.28;;;;;;;6.20;100.00;102841.00;5052457;28;20469;-76
2021/11/18 08:08:47;;;;;;;40.30;6.80;;;;;;;6.19;100.00;102836.63;5053787;28;20033;-74
2021/11/18 08:11:17;;;;;;;36.53;7.47;;;;;;;6.27;100.00;102841.63;5053427;28;20047;-74
2021/11/18 08:13:44;;;;;;;33.58;7.13;;;;;;;6.28;100.00;102848.63;5053837;28;20124;-74
2021/11/18 08:16:11;;;;;;;34.80;8.10;;;;;;;6.33;100.00;102841.41;5053690;28;20029;-74
2021/11/18 08:18:37;;;;;;;46.20;8.57;;;;;;;6.38;100.00;102857.91;5053923;28;20133;-73
2021/11/18 08:21:03;;;;;;;33.72;7.80;;;;;;;6.40;100.00;102850.78;5052583;28;20136;-74
2021/11/18 08:23:33;;;;;;;29.85;6.97;;;;;;;6.46;100.00;102853.16;5053383;28;20064;-75
2021/11/18 08:26:04;;;;;;;39.33;8.02;;;;;;;6.49;100.00;102862.75;5068505;28;20037;-74
2021/11/18 08:28:29;;;;;;;38.67;7.22;;;;;;;6.54;100.00;102860.81;5053018;28;20025;-75
2021/11/18 08:30:55;;;;;;;42.55;7.28;;;;;;;6.68;100.00;102854.94;5047260;28;20042;-74
2021/11/18 08:33:21;;;;;;;53.70;7.57;;;;;;;6.84;100.00;102856.00;5036071;28;20112;-73
2021/11/18 08:35:47;;;;;;;36.50;7.85;;;;;;;6.96;100.00;102859.91;5032431;28;20381;-76
2021/11/18 08:38:17;;;;;;;30.33;6.75;;;;;;;7.10;100.00;102850.50;5032173;28;20036;-76
2021/11/18 08:40:53;;;;;;;34.03;7.10;;;;;;;7.28;100.00;102847.03;5033344;28;20025;-75
2021/11/18 08:43:20;;;;;;;44.65;7.07;;;;;;;7.37;100.00;102828.06;5032902;28;20026;-75
2021/11/18 08:45:45;;;;;;;41.13;6.93;;;;;;;7.53;99.05;102838.00;5033497;28;20042;-75
2021/11/18 08:48:11;;;;;;;36.22;6.47;;;;;;;7.79;99.65;102836.78;5033458;28;20029;-75
2021/11/18 08:50:39;;;;;;;30.73;6.10;;;;;;;7.90;97.45;102844.25;5032715;28;20032;-75
2021/11/18 08:53:05;;;;;;;36.50;6.90;;;;;;;7.92;96.42;102845.84;5033009;28;20135;-75
2021/11/18 08:55:35;;;;;;;30.23;6.00;;;;;;;7.89;95.97;102843.34;5032756;28;20128;-75
2021/11/18 08:58:01;;;;;;;23.42;5.65;;;;;;;7.88;96.56;102835.47;5032962;28;20025;-74
2021/11/18 09:00:31;;;;;;;27.83;5.90;;;;;;;7.82;95.85;102836.63;5032902;28;20033;-75
2021/11/18 09:02:57;;;;;;;30.95;7.45;;;;;;;7.81;96.42;102832.28;5033153;28;20033;-75
2021/11/18 09:05:25;;;;;;;35.15;6.78;;;;;;;7.90;96.11;102838.94;5031276;28;20041;-75
2021/11/18 09:07:50;;;;;;;32.30;6.50;;;;;;;8.00;95.90;102842.88;5032809;28;20033;-74
2021/11/18 09:10:16;;;;;;;25.83;5.53;;;;;;;8.12;95.68;102842.28;5032595;28;20029;-76
2021/11/18 09:12:43;;;;;;;25.58;5.78;;;;;;;8.26;95.02;102840.75;5032534;28;20056;-74
2021/11/18 09:15:13;;;;;;;28.35;6.03;;;;;;;8.47;94.27;102846.81;5032541;28;20397;-74
2021/11/18 09:17:39;;;;;;;22.42;5.47;;;;;;;8.60;93.42;102849.72;5030820;28;20366;-75
2021/11/18 09:20:07;;;;;;;28.83;6.60;;;;;;;8.73;91.65;102837.56;5034943;28;20083;-73
2021/11/18 09:22:33;;;;;;;19.65;5.47;;;;;;;8.80;91.86;102844.25;5039738;28;20032;-74
2021/11/18 09:25:00;;;;;;;34.75;7.35;;;;;;;8.89;91.31;102840.25;5052542;28;20029;-74
2021/11/18 09:27:33;;;;;;;33.10;5.85;;;;;;;9.01;91.05;102844.06;5052004;28;20032;-76
2021/11/18 09:30:01;;;;;;;30.90;6.10;;;;;;;9.09;89.12;102844.56;5051722;28;20116;-75
2021/11/18 09:32:29;;;;;;;40.83;5.78;;;;;;;9.13;89.47;102848.75;5050731;28;20107;-74
2021/11/18 09:34:56;;;;;;;28.85;5.65;;;;;;;9.16;89.04;102843.25;5052346;28;20082;-74
2021/11/18 09:37:22;;;;;;;28.35;5.53;;;;;;;9.20;88.76;102843.13;5048679;28;20037;-73
2021/11/18 09:39:47;;;;;;;29.20;5.78;;;;;;;9.25;88.32;102841.94;5038639;28;20539;-74
2021/11/18 09:42:17;;;;;;;21.40;5.03;;;;;;;9.40;88.36;102847.38;5042220;28;20033;-76
2021/11/18 09:44:48;;;;;;;23.75;5.05;;;;;;;9.60;87.15;102849.81;5035361;28;20077;-76
2021/11/18 09:47:13;;;;;;;;;;;;;;;9.80;86.80;102850.50;5033835;28;20370;-74
2021/11/18 09:49:51;;;;;;;24.80;5.78;;;;;;;9.98;86.14;102857.47;5041606;28;19924;-73
2021/11/18 09:52:38;;;;;;;24.90;5.30;;;;;;;10.11;85.74;102862.13;5027205;28;20112;-72
2021/11/18 09:55:29;;;;;;;30.17;6.00;;;;;;;10.22;85.21;102862.34;5012645;28;20026;-72
2021/11/18 09:58:12;;;;;;;28.02;5.72;;;;;;;10.28;84.81;102869.13;5012450;28;20033;-72
2021/11/18 10:00:47;;;;;;;29.52;5.18;;;;;;;10.53;84.51;102874.78;5011773;28;20029;-75
2021/11/18 10:03:29;;;;;;;34.13;5.47;;;;;;;10.78;81.49;102878.69;5010949;28;20394;-73
2021/11/18 10:06:01;;;;;;;20.73;5.57;;;;;;;10.90;79.79;102882.41;5029754;28;20057;-73
2021/11/18 10:08:36;;;;;;;26.77;5.75;;;;;;;10.76;81.65;102878.75;5040242;28;20517;-74
2021/11/18 10:11:37;;;;;;;28.58;5.35;;;;;;;10.68;81.10;102882.81;5039112;28;20022;-75
2021/11/18 10:14:24;;;;;;;33.83;5.43;;;;;;;10.66;80.87;102877.59;5013467;28;20040;-74
2021/11/18 10:17:08;;;;;;;28.15;5.00;;;;;;;10.62;81.25;102883.19;5041223;28;20031;-74
2021/11/18 10:19:37;;;;;;;27.75;6.57;;;;;;;10.63;81.79;102885.75;5028183;28;20048;-74
2021/11/18 10:22:03;;;;;;;33.00;5.97;;;;;;;10.67;81.51;102881.09;5021854;28;20022;-74
2021/11/18 10:24:33;;;;;;;27.95;5.95;;;;;;;10.70;80.90;102886.25;5032266;28;20047;-73
2021/11/18 10:27:10;;;;;;;20.75;4.63;;;;;;;10.75;80.68;102876.19;5026980;28;20111;-72
2021/11/18 10:29:52;;;;;;;28.08;5.32;;;;;;;10.80;80.89;102874.09;5048081;28;20112;-74
2021/11/18 10:32:19;;;;;;;39.92;6.47;;;;;;;10.89;82.09;102872.72;5050390;28;20055;-74
2021/11/18 10:35:12;;;;;;;28.60;5.30;;;;;;;10.98;80.97;102866.81;5050936;28;20025;-74
2021/11/18 10:37:41;;;;;;;26.38;5.78;;;;;;;11.02;80.10;102871.03;5051182;28;20036;-75
2021/11/18 10:40:18;;;;;;;29.98;5.32;;;;;;;10.98;82.02;102871.31;5050057;28;20081;-73
2021/11/18 10:42:50;;;;;;;28.05;5.47;;;;;;;11.16;78.76;102858.66;5051161;28;20029;-76
2021/11/18 10:45:28;;;;;;;33.88;5.72;;;;;;;11.23;79.12;102858.19;5051113;28;20497;-73
2021/11/18 10:48:21;;;;;;;30.67;5.53;;;;;;;11.20;77.17;102865.53;5051486;28;20064;-73
2021/11/18 10:50:53;;;;;;;26.05;4.30;;;;;;;11.08;76.67;102851.16;5051253;28;20094;-73
2021/11/18 10:53:26;;;;;;;31.05;5.30;;;;;;;10.98;76.81;102842.00;5055403;28;20113;-73
2021/11/18 10:56:16;;;;;;;29.42;4.35;;;;;;;10.99;77.41;102844.56;5055531;28;20068;-74
2021/11/18 10:59:05;;;;;;;28.80;4.45;;;;;;;10.97;78.21;102843.78;5054854;28;20100;-73
2021/11/18 11:01:34;;;;;;;21.45;3.80;;;;;;;11.00;77.86;102829.44;5055144;28;20138;-74
2021/11/18 11:04:03;;;;;;;22.85;4.35;;;;;;;11.01;76.79;102833.81;5055268;28;20025;-73
2021/11/18 11:06:41;;;;;;;31.85;3.97;;;;;;;11.02;76.70;102828.41;5044501;28;20057;-73
2021/11/18 11:09:10;;;;;;;27.05;3.97;;;;;;;11.04;77.26;102828.31;5043862;28;20108;-73
2021/11/18 11:12:03;;;;;;;18.52;3.70;;;;;;;11.11;75.97;102816.34;5028590;28;20444;-73
2021/11/18 11:14:50;;;;;;;24.45;3.70;;;;;;;11.21;75.58;102813.94;5025620;28;20036;-76
2021/11/18 11:17:32;;;;;;;19.35;4.13;;;;;;;11.32;76.27;102823.94;5040870;28;20033;-73
2021/11/18 11:20:07;;;;;;;18.27;3.53;;;;;;;11.37;75.67;102820.03;5053288;28;20037;-75
2021/11/18 11:22:33;;;;;;;23.02;4.57;;;;;;;11.41;75.20;102823.38;5053796;28;20040;-74
2021/11/18 11:25:32;;;;;;;20.83;3.80;;;;;;;11.44;74.54;102821.34;5054812;28;20031;-74
2021/11/18 11:28:18;;;;;;;22.05;3.45;;;;;;;11.42;75.76;102817.06;5031760;28;20045;-74